sensor_id;sensor_type;location;lat;lon;timestamp;P1;durP1;ratioP1;P2;durP2;ratioP2
39948;SDS011;29070;48.102;-1.652;2024-01-16T00:02:25;18.27;;;6.33;;
39948;SDS011;29070;48.102;-1.652;2024-01-16T00:07:25;13.30;;;6.00;;
39948;SDS011;29070;48.102;-1.652;2024-01-16T00:12:26;15.83;;;6.33;;
39948;SDS011;29070;48.102;-1.652;2024-01-16T00:17:26;15.00;;;6.70;;
39948;SDS011;29070;48.102;-1.652;2024-01-16T00:22:27;24.87;;;8.47;;
39948;SDS011;29070;48.102;-1.652;2024-01-16T00:27:27;15.95;;;7.68;;
39948;SDS011;29070;48.102;-1.652;2024-01-16T00:32:28;19.80;;;6.93;;
39948;SDS011;29070;48.102;-1.652;2024-01-16T00:37:28;23.90;;;7.33;;
39948;SDS011;29070;48.102;-1.652;2024-01-16T00:42:28;29.15;;;9.18;;
39948;SDS011;29070;48.102;-1.652;2024-01-16T00:47:29;23.13;;;8.83;;
39948;SDS011;29070;48.102;-1.652;2024-01-16T00:52:29;22.10;;;8.00;;
39948;SDS011;29070;48.102;-1.652;2024-01-16T00:57:29;23.05;;;7.43;;
39948;SDS011;29070;48.102;-1.652;2024-01-16T01:02:30;20.90;;;7.07;;
39948;SDS011;29070;48.102;-1.652;2024-01-16T01:07:30;33.53;;;8.60;;
39948;SDS011;29070;48.102;-1.652;2024-01-16T01:12:30;19.00;;;7.97;;
39948;SDS011;29070;48.102;-1.652;2024-01-16T01:17:31;13.37;;;6.97;;
39948;SDS011;29070;48.102;-1.652;2024-01-16T01:22:31;24.40;;;7.73;;
39948;SDS011;29070;48.102;-1.652;2024-01-16T01:27:31;17.77;;;6.87;;
39948;SDS011;29070;48.102;-1.652;2024-01-16T01:32:32;22.37;;;7.03;;
39948;SDS011;29070;48.102;-1.652;2024-01-16T01:37:32;20.33;;;7.78;;
39948;SDS011;29070;48.102;-1.652;2024-01-16T01:42:32;50.33;;;15.90;;
39948;SDS011;29070;48.102;-1.652;2024-01-16T01:47:33;27.73;;;10.27;;
39948;SDS011;29070;48.102;-1.652;2024-01-16T01:52:33;25.25;;;9.23;;
39948;SDS011;29070;48.102;-1.652;2024-01-16T01:57:34;18.75;;;7.00;;
39948;SDS011;29070;48.102;-1.652;2024-01-16T02:02:34;23.73;;;7.53;;
39948;SDS011;29070;48.102;-1.652;2024-01-16T02:07:34;21.83;;;8.23;;
39948;SDS011;29070;48.102;-1.652;2024-01-16T02:12:37;18.92;;;7.43;;
39948;SDS011;29070;48.102;-1.652;2024-01-16T02:17:38;13.43;;;6.82;;
39948;SDS011;29070;48.102;-1.652;2024-01-16T02:22:38;18.10;;;6.00;;
39948;SDS011;29070;48.102;-1.652;2024-01-16T02:27:43;10.30;;;4.80;;
39948;SDS011;29070;48.102;-1.652;2024-01-16T02:32:43;17.77;;;6.47;;
39948;SDS011;29070;48.102;-1.652;2024-01-16T02:37:44;10.93;;;5.20;;
39948;SDS011;29070;48.102;-1.652;2024-01-16T02:42:44;12.80;;;4.63;;
39948;SDS011;29070;48.102;-1.652;2024-01-16T02:47:44;16.83;;;4.90;;
39948;SDS011;29070;48.102;-1.652;2024-01-16T02:52:45;9.45;;;4.57;;
39948;SDS011;29070;48.102;-1.652;2024-01-16T02:57:45;10.83;;;4.70;;
39948;SDS011;29070;48.102;-1.652;2024-01-16T03:02:46;14.97;;;5.37;;
39948;SDS011;29070;48.102;-1.652;2024-01-16T03:07:46;9.60;;;4.80;;
39948;SDS011;29070;48.102;-1.652;2024-01-16T03:12:46;9.57;;;3.53;;
39948;SDS011;29070;48.102;-1.652;2024-01-16T03:17:47;10.15;;;4.03;;
39948;SDS011;29070;48.102;-1.652;2024-01-16T03:22:47;13.30;;;4.38;;
39948;SDS011;29070;48.102;-1.652;2024-01-16T03:27:48;12.75;;;4.60;;
39948;SDS011;29070;48.102;-1.652;2024-01-16T03:32:49;7.27;;;3.77;;
39948;SDS011;29070;48.102;-1.652;2024-01-16T03:37:49;12.70;;;4.10;;
39948;SDS011;29070;48.102;-1.652;2024-01-16T03:42:49;6.90;;;3.30;;
39948;SDS011;29070;48.102;-1.652;2024-01-16T03:47:50;8.82;;;3.72;;
39948;SDS011;29070;48.102;-1.652;2024-01-16T03:52:50;8.98;;;4.22;;
39948;SDS011;29070;48.102;-1.652;2024-01-16T03:57:50;7.97;;;3.75;;
39948;SDS011;29070;48.102;-1.652;2024-01-16T04:02:51;6.67;;;3.33;;
39948;SDS011;29070;48.102;-1.652;2024-01-16T04:07:51;6.13;;;2.97;;
39948;SDS011;29070;48.102;-1.652;2024-01-16T04:12:52;7.53;;;3.97;;
39948;SDS011;29070;48.102;-1.652;2024-01-16T04:17:52;8.50;;;3.90;;
39948;SDS011;29070;48.102;-1.652;2024-01-16T04:22:53;8.93;;;3.53;;
39948;SDS011;29070;48.102;-1.652;2024-01-16T04:27:53;9.10;;;3.97;;
39948;SDS011;29070;48.102;-1.652;2024-01-16T04:32:53;10.07;;;3.80;;
39948;SDS011;29070;48.102;-1.652;2024-01-16T04:37:53;9.20;;;3.63;;
39948;SDS011;29070;48.102;-1.652;2024-01-16T04:42:54;10.87;;;3.90;;
39948;SDS011;29070;48.102;-1.652;2024-01-16T04:47:54;10.77;;;4.03;;
39948;SDS011;29070;48.102;-1.652;2024-01-16T04:52:55;8.90;;;3.73;;
39948;SDS011;29070;48.102;-1.652;2024-01-16T04:57:55;9.70;;;3.80;;
39948;SDS011;29070;48.102;-1.652;2024-01-16T05:02:57;7.40;;;3.40;;
39948;SDS011;29070;48.102;-1.652;2024-01-16T05:08:00;11.40;;;4.13;;
39948;SDS011;29070;48.102;-1.652;2024-01-16T05:13:01;10.63;;;4.82;;
39948;SDS011;29070;48.102;-1.652;2024-01-16T05:18:02;9.38;;;4.22;;
39948;SDS011;29070;48.102;-1.652;2024-01-16T05:23:03;12.75;;;5.00;;
39948;SDS011;29070;48.102;-1.652;2024-01-16T05:28:04;9.82;;;3.83;;
39948;SDS011;29070;48.102;-1.652;2024-01-16T05:33:04;12.20;;;5.15;;
39948;SDS011;29070;48.102;-1.652;2024-01-16T05:38:04;12.73;;;4.47;;
39948;SDS011;29070;48.102;-1.652;2024-01-16T05:43:05;10.73;;;4.88;;
39948;SDS011;29070;48.102;-1.652;2024-01-16T05:48:05;11.30;;;4.67;;
39948;SDS011;29070;48.102;-1.652;2024-01-16T05:53:07;11.07;;;4.22;;
39948;SDS011;29070;48.102;-1.652;2024-01-16T05:58:07;12.20;;;4.80;;
39948;SDS011;29070;48.102;-1.652;2024-01-16T06:03:07;8.07;;;4.20;;
39948;SDS011;29070;48.102;-1.652;2024-01-16T06:08:08;11.10;;;4.43;;
39948;SDS011;29070;48.102;-1.652;2024-01-16T06:13:08;9.43;;;4.40;;
39948;SDS011;29070;48.102;-1.652;2024-01-16T06:18:09;11.83;;;4.60;;
39948;SDS011;29070;48.102;-1.652;2024-01-16T06:23:09;13.13;;;4.40;;
39948;SDS011;29070;48.102;-1.652;2024-01-16T06:28:09;10.23;;;4.87;;
39948;SDS011;29070;48.102;-1.652;2024-01-16T06:33:09;11.60;;;4.90;;
39948;SDS011;29070;48.102;-1.652;2024-01-16T06:38:10;15.27;;;5.50;;
39948;SDS011;29070;48.102;-1.652;2024-01-16T06:43:10;10.23;;;4.88;;
39948;SDS011;29070;48.102;-1.652;2024-01-16T06:48:11;11.10;;;4.82;;
39948;SDS011;29070;48.102;-1.652;2024-01-16T06:53:11;10.55;;;4.75;;
39948;SDS011;29070;48.102;-1.652;2024-01-16T06:58:13;13.43;;;5.00;;
39948;SDS011;29070;48.102;-1.652;2024-01-16T07:03:13;10.52;;;5.00;;
39948;SDS011;29070;48.102;-1.652;2024-01-16T07:08:14;12.55;;;5.95;;
39948;SDS011;29070;48.102;-1.652;2024-01-16T07:13:14;9.60;;;5.10;;
39948;SDS011;29070;48.102;-1.652;2024-01-16T07:18:14;6.10;;;4.07;;
39948;SDS011;29070;48.102;-1.652;2024-01-16T07:23:15;10.17;;;5.10;;
39948;SDS011;29070;48.102;-1.652;2024-01-16T07:28:15;11.27;;;4.97;;
39948;SDS011;29070;48.102;-1.652;2024-01-16T07:33:15;11.73;;;4.88;;
39948;SDS011;29070;48.102;-1.652;2024-01-16T07:38:16;11.33;;;3.53;;
39948;SDS011;29070;48.102;-1.652;2024-01-16T07:43:16;8.90;;;3.33;;
39948;SDS011;29070;48.102;-1.652;2024-01-16T07:48:16;8.07;;;4.20;;
39948;SDS011;29070;48.102;-1.652;2024-01-16T07:53:17;6.67;;;4.27;;
39948;SDS011;29070;48.102;-1.652;2024-01-16T07:58:17;12.03;;;6.23;;
39948;SDS011;29070;48.102;-1.652;2024-01-16T08:03:17;14.23;;;5.27;;
39948;SDS011;29070;48.102;-1.652;2024-01-16T08:08:18;12.13;;;4.77;;
39948;SDS011;29070;48.102;-1.652;2024-01-16T08:13:18;8.17;;;3.90;;
39948;SDS011;29070;48.102;-1.652;2024-01-16T08:18:18;7.93;;;4.13;;
39948;SDS011;29070;48.102;-1.652;2024-01-16T08:23:19;8.77;;;3.47;;
39948;SDS011;29070;48.102;-1.652;2024-01-16T08:28:21;11.32;;;3.28;;
39948;SDS011;29070;48.102;-1.652;2024-01-16T08:33:24;6.63;;;3.00;;
39948;SDS011;29070;48.102;-1.652;2024-01-16T08:38:24;7.63;;;3.28;;
39948;SDS011;29070;48.102;-1.652;2024-01-16T08:43:24;9.80;;;3.63;;
39948;SDS011;29070;48.102;-1.652;2024-01-16T08:48:25;10.23;;;3.67;;
39948;SDS011;29070;48.102;-1.652;2024-01-16T08:53:25;10.32;;;4.05;;
39948;SDS011;29070;48.102;-1.652;2024-01-16T08:58:26;8.23;;;3.50;;
39948;SDS011;29070;48.102;-1.652;2024-01-16T09:03:26;8.77;;;4.05;;
39948;SDS011;29070;48.102;-1.652;2024-01-16T09:08:27;11.07;;;3.80;;
39948;SDS011;29070;48.102;-1.652;2024-01-16T09:13:27;10.80;;;4.15;;
39948;SDS011;29070;48.102;-1.652;2024-01-16T09:18:27;9.37;;;3.30;;
39948;SDS011;29070;48.102;-1.652;2024-01-16T09:23:28;6.07;;;3.58;;
39948;SDS011;29070;48.102;-1.652;2024-01-16T09:28:28;17.63;;;3.67;;
39948;SDS011;29070;48.102;-1.652;2024-01-16T09:33:28;30.93;;;6.80;;
39948;SDS011;29070;48.102;-1.652;2024-01-16T09:38:29;9.57;;;3.80;;
39948;SDS011;29070;48.102;-1.652;2024-01-16T09:43:31;8.23;;;3.30;;
39948;SDS011;29070;48.102;-1.652;2024-01-16T09:48:32;6.97;;;3.20;;
39948;SDS011;29070;48.102;-1.652;2024-01-16T09:53:32;6.95;;;2.92;;
39948;SDS011;29070;48.102;-1.652;2024-01-16T09:58:33;7.80;;;3.28;;
39948;SDS011;29070;48.102;-1.652;2024-01-16T10:03:35;11.55;;;3.03;;
39948;SDS011;29070;48.102;-1.652;2024-01-16T10:08:36;4.20;;;2.92;;
39948;SDS011;29070;48.102;-1.652;2024-01-16T10:13:37;9.68;;;2.00;;
39948;SDS011;29070;48.102;-1.652;2024-01-16T10:18:38;6.15;;;2.10;;
39948;SDS011;29070;48.102;-1.652;2024-01-16T10:23:38;4.83;;;2.37;;
39948;SDS011;29070;48.102;-1.652;2024-01-16T10:28:41;3.65;;;2.08;;
39948;SDS011;29070;48.102;-1.652;2024-01-16T10:33:42;3.13;;;1.48;;
39948;SDS011;29070;48.102;-1.652;2024-01-16T10:38:43;5.97;;;1.95;;
39948;SDS011;29070;48.102;-1.652;2024-01-16T10:43:44;4.90;;;2.03;;
39948;SDS011;29070;48.102;-1.652;2024-01-16T10:48:45;2.97;;;1.60;;
39948;SDS011;29070;48.102;-1.652;2024-01-16T10:54:04;5.45;;;1.55;;
39948;SDS011;29070;48.102;-1.652;2024-01-16T10:59:12;4.07;;;1.90;;
39948;SDS011;29070;48.102;-1.652;2024-01-16T11:04:19;15.30;;;2.42;;
39948;SDS011;29070;48.102;-1.652;2024-01-16T11:09:20;8.38;;;2.47;;
39948;SDS011;29070;48.102;-1.652;2024-01-16T11:14:21;3.10;;;1.70;;
39948;SDS011;29070;48.102;-1.652;2024-01-16T11:19:24;3.90;;;2.03;;
39948;SDS011;29070;48.102;-1.652;2024-01-16T11:24:25;7.65;;;1.77;;
39948;SDS011;29070;48.102;-1.652;2024-01-16T11:39:41;3.35;;;1.65;;
39948;SDS011;29070;48.102;-1.652;2024-01-16T11:50:09;6.07;;;1.80;;
39948;SDS011;29070;48.102;-1.652;2024-01-16T12:00:35;4.90;;;1.35;;
39948;SDS011;29070;48.102;-1.652;2024-01-16T12:05:35;3.88;;;1.45;;
39948;SDS011;29070;48.102;-1.652;2024-01-16T12:10:45;3.77;;;1.50;;
39948;SDS011;29070;48.102;-1.652;2024-01-16T12:15:47;3.90;;;1.70;;
39948;SDS011;29070;48.102;-1.652;2024-01-16T12:20:48;2.60;;;1.40;;
39948;SDS011;29070;48.102;-1.652;2024-01-16T12:25:52;3.42;;;1.42;;
39948;SDS011;29070;48.102;-1.652;2024-01-16T12:30:59;1.90;;;1.17;;
39948;SDS011;29070;48.102;-1.652;2024-01-16T12:36:00;2.40;;;1.10;;
39948;SDS011;29070;48.102;-1.652;2024-01-16T12:41:04;3.50;;;1.40;;
39948;SDS011;29070;48.102;-1.652;2024-01-16T12:46:10;2.83;;;1.20;;
39948;SDS011;29070;48.102;-1.652;2024-01-16T12:51:11;2.60;;;1.45;;
39948;SDS011;29070;48.102;-1.652;2024-01-16T12:56:12;2.78;;;1.08;;
39948;SDS011;29070;48.102;-1.652;2024-01-16T13:06:26;2.22;;;1.38;;
39948;SDS011;29070;48.102;-1.652;2024-01-16T13:11:26;4.18;;;1.85;;
39948;SDS011;29070;48.102;-1.652;2024-01-16T13:16:26;4.13;;;1.47;;
39948;SDS011;29070;48.102;-1.652;2024-01-16T13:21:27;5.68;;;1.42;;
39948;SDS011;29070;48.102;-1.652;2024-01-16T13:26:27;35.30;;;5.00;;
39948;SDS011;29070;48.102;-1.652;2024-01-16T13:31:27;3.93;;;1.60;;
39948;SDS011;29070;48.102;-1.652;2024-01-16T13:36:28;2.67;;;1.50;;
39948;SDS011;29070;48.102;-1.652;2024-01-16T13:41:28;5.30;;;1.80;;
39948;SDS011;29070;48.102;-1.652;2024-01-16T13:46:29;2.60;;;1.10;;
39948;SDS011;29070;48.102;-1.652;2024-01-16T13:51:29;2.78;;;1.50;;
39948;SDS011;29070;48.102;-1.652;2024-01-16T13:56:30;3.05;;;1.00;;
39948;SDS011;29070;48.102;-1.652;2024-01-16T14:01:30;3.80;;;1.30;;
39948;SDS011;29070;48.102;-1.652;2024-01-16T14:06:30;5.50;;;1.43;;
39948;SDS011;29070;48.102;-1.652;2024-01-16T14:11:31;3.80;;;1.53;;
39948;SDS011;29070;48.102;-1.652;2024-01-16T14:16:31;4.03;;;1.33;;
39948;SDS011;29070;48.102;-1.652;2024-01-16T14:21:32;4.55;;;1.27;;
39948;SDS011;29070;48.102;-1.652;2024-01-16T14:26:32;2.88;;;1.15;;
39948;SDS011;29070;48.102;-1.652;2024-01-16T14:31:32;3.13;;;1.53;;
39948;SDS011;29070;48.102;-1.652;2024-01-16T14:36:33;4.90;;;1.40;;
39948;SDS011;29070;48.102;-1.652;2024-01-16T14:41:33;6.97;;;1.37;;
39948;SDS011;29070;48.102;-1.652;2024-01-16T14:46:33;5.70;;;1.30;;
39948;SDS011;29070;48.102;-1.652;2024-01-16T14:51:34;5.60;;;0.97;;
39948;SDS011;29070;48.102;-1.652;2024-01-16T14:56:35;4.63;;;1.42;;
39948;SDS011;29070;48.102;-1.652;2024-01-16T15:01:35;3.43;;;1.30;;
39948;SDS011;29070;48.102;-1.652;2024-01-16T15:06:35;2.57;;;1.10;;
39948;SDS011;29070;48.102;-1.652;2024-01-16T15:11:36;4.68;;;1.77;;
39948;SDS011;29070;48.102;-1.652;2024-01-16T15:16:36;5.53;;;1.90;;
39948;SDS011;29070;48.102;-1.652;2024-01-16T15:21:36;6.70;;;1.77;;
39948;SDS011;29070;48.102;-1.652;2024-01-16T15:26:39;3.17;;;1.35;;
39948;SDS011;29070;48.102;-1.652;2024-01-16T15:31:39;4.82;;;1.80;;
39948;SDS011;29070;48.102;-1.652;2024-01-16T15:36:40;3.47;;;1.53;;
39948;SDS011;29070;48.102;-1.652;2024-01-16T15:41:40;3.65;;;1.67;;
39948;SDS011;29070;48.102;-1.652;2024-01-16T15:46:56;5.38;;;2.00;;
39948;SDS011;29070;48.102;-1.652;2024-01-16T15:51:58;7.28;;;2.55;;
39948;SDS011;29070;48.102;-1.652;2024-01-16T15:57:04;5.05;;;2.75;;
39948;SDS011;29070;48.102;-1.652;2024-01-16T16:02:05;6.40;;;2.97;;
39948;SDS011;29070;48.102;-1.652;2024-01-16T16:07:06;5.95;;;2.95;;
39948;SDS011;29070;48.102;-1.652;2024-01-16T16:12:07;11.77;;;3.75;;
39948;SDS011;29070;48.102;-1.652;2024-01-16T16:17:08;3.35;;;2.35;;
39948;SDS011;29070;48.102;-1.652;2024-01-16T16:22:08;8.48;;;2.58;;
39948;SDS011;29070;48.102;-1.652;2024-01-16T16:27:21;5.78;;;2.25;;
39948;SDS011;29070;48.102;-1.652;2024-01-16T16:32:23;8.00;;;3.08;;
39948;SDS011;29070;48.102;-1.652;2024-01-16T16:37:24;8.77;;;2.90;;
39948;SDS011;29070;48.102;-1.652;2024-01-16T16:42:24;7.03;;;2.67;;
39948;SDS011;29070;48.102;-1.652;2024-01-16T16:47:27;8.55;;;3.15;;
39948;SDS011;29070;48.102;-1.652;2024-01-16T16:52:27;6.57;;;3.37;;
39948;SDS011;29070;48.102;-1.652;2024-01-16T16:57:27;4.07;;;3.20;;
39948;SDS011;29070;48.102;-1.652;2024-01-16T17:02:28;4.87;;;2.87;;
39948;SDS011;29070;48.102;-1.652;2024-01-16T17:07:28;7.80;;;3.13;;
39948;SDS011;29070;48.102;-1.652;2024-01-16T17:12:28;6.57;;;3.15;;
39948;SDS011;29070;48.102;-1.652;2024-01-16T17:17:29;10.38;;;3.58;;
39948;SDS011;29070;48.102;-1.652;2024-01-16T17:22:32;5.18;;;2.50;;
39948;SDS011;29070;48.102;-1.652;2024-01-16T17:27:33;6.97;;;3.43;;
39948;SDS011;29070;48.102;-1.652;2024-01-16T17:32:33;10.23;;;3.00;;
39948;SDS011;29070;48.102;-1.652;2024-01-16T17:37:33;5.63;;;2.47;;
39948;SDS011;29070;48.102;-1.652;2024-01-16T17:42:33;9.07;;;2.73;;
39948;SDS011;29070;48.102;-1.652;2024-01-16T17:47:37;9.73;;;2.97;;
39948;SDS011;29070;48.102;-1.652;2024-01-16T17:52:38;5.53;;;3.05;;
39948;SDS011;29070;48.102;-1.652;2024-01-16T17:57:38;7.13;;;2.80;;
39948;SDS011;29070;48.102;-1.652;2024-01-16T18:02:42;8.27;;;3.25;;
39948;SDS011;29070;48.102;-1.652;2024-01-16T18:07:42;6.70;;;3.57;;
39948;SDS011;29070;48.102;-1.652;2024-01-16T18:12:43;8.83;;;3.27;;
39948;SDS011;29070;48.102;-1.652;2024-01-16T18:17:46;6.10;;;3.20;;
39948;SDS011;29070;48.102;-1.652;2024-01-16T18:22:49;12.02;;;4.40;;
39948;SDS011;29070;48.102;-1.652;2024-01-16T18:27:55;8.18;;;4.00;;
39948;SDS011;29070;48.102;-1.652;2024-01-16T18:32:57;13.23;;;4.20;;
39948;SDS011;29070;48.102;-1.652;2024-01-16T18:37:57;10.77;;;3.87;;
39948;SDS011;29070;48.102;-1.652;2024-01-16T18:42:57;8.73;;;4.03;;
39948;SDS011;29070;48.102;-1.652;2024-01-16T18:47:58;13.67;;;4.13;;
39948;SDS011;29070;48.102;-1.652;2024-01-16T18:52:58;9.77;;;4.40;;
39948;SDS011;29070;48.102;-1.652;2024-01-16T18:57:58;12.30;;;4.40;;
39948;SDS011;29070;48.102;-1.652;2024-01-16T19:03:01;11.93;;;5.47;;
39948;SDS011;29070;48.102;-1.652;2024-01-16T19:08:02;9.98;;;4.68;;
39948;SDS011;29070;48.102;-1.652;2024-01-16T19:13:04;8.88;;;4.32;;
39948;SDS011;29070;48.102;-1.652;2024-01-16T19:18:04;10.10;;;4.97;;
39948;SDS011;29070;48.102;-1.652;2024-01-16T19:23:05;8.45;;;4.43;;
39948;SDS011;29070;48.102;-1.652;2024-01-16T19:28:05;17.33;;;5.20;;
39948;SDS011;29070;48.102;-1.652;2024-01-16T19:33:06;10.82;;;5.15;;
39948;SDS011;29070;48.102;-1.652;2024-01-16T19:38:08;12.73;;;4.78;;
39948;SDS011;29070;48.102;-1.652;2024-01-16T19:43:08;13.32;;;4.53;;
39948;SDS011;29070;48.102;-1.652;2024-01-16T19:48:09;10.80;;;4.50;;
39948;SDS011;29070;48.102;-1.652;2024-01-16T19:53:12;12.57;;;5.85;;
39948;SDS011;29070;48.102;-1.652;2024-01-16T19:58:14;8.25;;;4.53;;
39948;SDS011;29070;48.102;-1.652;2024-01-16T20:03:15;11.77;;;5.35;;
39948;SDS011;29070;48.102;-1.652;2024-01-16T20:08:15;9.50;;;4.37;;
39948;SDS011;29070;48.102;-1.652;2024-01-16T20:13:15;15.57;;;5.20;;
39948;SDS011;29070;48.102;-1.652;2024-01-16T20:18:16;8.95;;;4.53;;
39948;SDS011;29070;48.102;-1.652;2024-01-16T20:23:16;12.20;;;5.57;;
39948;SDS011;29070;48.102;-1.652;2024-01-16T20:28:17;13.35;;;5.07;;
39948;SDS011;29070;48.102;-1.652;2024-01-16T20:33:17;10.95;;;4.38;;
39948;SDS011;29070;48.102;-1.652;2024-01-16T20:38:18;12.63;;;4.97;;
39948;SDS011;29070;48.102;-1.652;2024-01-16T20:43:18;12.73;;;4.73;;
39948;SDS011;29070;48.102;-1.652;2024-01-16T20:48:18;13.00;;;4.60;;
39948;SDS011;29070;48.102;-1.652;2024-01-16T20:53:18;10.73;;;4.83;;
39948;SDS011;29070;48.102;-1.652;2024-01-16T20:58:20;10.90;;;5.03;;
39948;SDS011;29070;48.102;-1.652;2024-01-16T21:03:21;9.80;;;4.28;;
39948;SDS011;29070;48.102;-1.652;2024-01-16T21:08:23;8.55;;;4.97;;
39948;SDS011;29070;48.102;-1.652;2024-01-16T21:13:24;9.87;;;4.53;;
39948;SDS011;29070;48.102;-1.652;2024-01-16T21:18:26;12.30;;;4.40;;
39948;SDS011;29070;48.102;-1.652;2024-01-16T21:23:30;13.93;;;5.18;;
39948;SDS011;29070;48.102;-1.652;2024-01-16T21:28:31;21.13;;;6.57;;
39948;SDS011;29070;48.102;-1.652;2024-01-16T21:33:31;15.90;;;5.35;;
39948;SDS011;29070;48.102;-1.652;2024-01-16T21:38:31;10.45;;;4.65;;
39948;SDS011;29070;48.102;-1.652;2024-01-16T21:43:32;11.73;;;5.57;;
39948;SDS011;29070;48.102;-1.652;2024-01-16T21:48:33;11.68;;;6.00;;
39948;SDS011;29070;48.102;-1.652;2024-01-16T21:53:33;14.57;;;5.65;;
39948;SDS011;29070;48.102;-1.652;2024-01-16T21:58:36;17.00;;;6.13;;
39948;SDS011;29070;48.102;-1.652;2024-01-16T22:03:36;12.97;;;5.43;;
39948;SDS011;29070;48.102;-1.652;2024-01-16T22:08:37;13.13;;;4.88;;
39948;SDS011;29070;48.102;-1.652;2024-01-16T22:13:37;17.03;;;6.20;;
39948;SDS011;29070;48.102;-1.652;2024-01-16T22:18:38;11.90;;;5.27;;
39948;SDS011;29070;48.102;-1.652;2024-01-16T22:23:39;17.70;;;6.72;;
39948;SDS011;29070;48.102;-1.652;2024-01-16T22:28:40;12.17;;;5.87;;
39948;SDS011;29070;48.102;-1.652;2024-01-16T22:33:44;18.63;;;6.63;;
39948;SDS011;29070;48.102;-1.652;2024-01-16T22:38:44;17.03;;;6.93;;
39948;SDS011;29070;48.102;-1.652;2024-01-16T22:43:47;20.00;;;7.63;;
39948;SDS011;29070;48.102;-1.652;2024-01-16T22:48:47;15.02;;;6.57;;
39948;SDS011;29070;48.102;-1.652;2024-01-16T22:53:47;18.40;;;7.63;;
39948;SDS011;29070;48.102;-1.652;2024-01-16T22:58:48;18.10;;;6.50;;
39948;SDS011;29070;48.102;-1.652;2024-01-16T23:03:48;18.63;;;6.57;;
39948;SDS011;29070;48.102;-1.652;2024-01-16T23:08:49;17.33;;;6.95;;
39948;SDS011;29070;48.102;-1.652;2024-01-16T23:13:50;18.52;;;7.10;;
39948;SDS011;29070;48.102;-1.652;2024-01-16T23:18:51;13.38;;;6.18;;
39948;SDS011;29070;48.102;-1.652;2024-01-16T23:23:51;13.02;;;5.90;;
39948;SDS011;29070;48.102;-1.652;2024-01-16T23:28:52;13.20;;;4.87;;
39948;SDS011;29070;48.102;-1.652;2024-01-16T23:33:53;13.65;;;5.40;;
39948;SDS011;29070;48.102;-1.652;2024-01-16T23:38:54;12.80;;;4.60;;
39948;SDS011;29070;48.102;-1.652;2024-01-16T23:43:54;13.30;;;4.18;;
39948;SDS011;29070;48.102;-1.652;2024-01-16T23:48:54;12.27;;;4.65;;
39948;SDS011;29070;48.102;-1.652;2024-01-16T23:53:55;8.48;;;3.88;;
39948;SDS011;29070;48.102;-1.652;2024-01-16T23:58:56;10.63;;;4.05;;
